FNME

Menongue Airport

Menongue, Angola
TAF FNME 152230Z 1600/1612 03005KT CAVOK
Issued Valid From Valid To
Nov-15 @ 22:30 UTC
(9 hours ago)
Nov-16 @ 00:00 UTC
(8 hours ago)
Nov-16 @ 12:00 UTC
(in 4 hours)
Nov-16 @ 00:00 to Nov-16 @ 12:00
TAF FNME 152230Z 1600/1612 03005KT CAVOK
Wind Visibility Clouds Conditions
30° at 5 knots 10,000+ meters
  • No significant clouds
TAF FNME 152230Z 1600/1612 03005KT CAVOK
Issued Nov-15 @ 22:30 UTC
(9 hours ago)
Valid From Nov-16 @ 00:00 UTC
(8 hours ago)
Valid To Nov-16 @ 12:00 UTC
(in 4 hours)
Nov-16 @ 00:00 - Nov-16 @ 12:00
Wind Visibility
30° at 5 knots 10,000+ meters
Clouds
  • No significant clouds
Conditions